sensor_id;sensor_type;location;lat;lon;timestamp;pressure;altitude;pressure_sealevel;temperature;humidity
49030;BME280;43337;52.070;4.508;2024-02-16T00:01:40;101049.47;;;11.42;100.00
49030;BME280;43337;52.070;4.508;2024-02-16T00:04:07;101040.91;;;11.37;100.00
49030;BME280;43337;52.070;4.508;2024-02-16T00:06:32;101036.47;;;11.37;100.00
49030;BME280;43337;52.070;4.508;2024-02-16T00:08:59;101034.00;;;11.34;100.00
49030;BME280;43337;52.070;4.508;2024-02-16T00:11:25;101038.38;;;11.34;100.00
49030;BME280;43337;52.070;4.508;2024-02-16T00:13:52;101055.81;;;11.38;100.00
49030;BME280;43337;52.070;4.508;2024-02-16T00:16:18;101006.75;;;11.13;100.00
49030;BME280;43337;52.070;4.508;2024-02-16T00:18:43;101037.53;;;11.33;100.00
49030;BME280;43337;52.070;4.508;2024-02-16T00:21:08;101041.91;;;11.34;100.00
49030;BME280;43337;52.070;4.508;2024-02-16T00:23:34;101047.03;;;11.37;100.00
49030;BME280;43337;52.070;4.508;2024-02-16T00:26:01;101039.06;;;11.39;100.00
49030;BME280;43337;52.070;4.508;2024-02-16T00:28:26;101047.81;;;11.39;100.00
49030;BME280;43337;52.070;4.508;2024-02-16T00:30:52;101037.34;;;11.38;100.00
49030;BME280;43337;52.070;4.508;2024-02-16T00:33:17;101038.22;;;11.38;100.00
49030;BME280;43337;52.070;4.508;2024-02-16T00:35:44;101039.09;;;11.37;100.00
49030;BME280;43337;52.070;4.508;2024-02-16T00:38:14;101031.00;;;11.21;100.00
49030;BME280;43337;52.070;4.508;2024-02-16T00:40:39;101054.16;;;11.35;100.00
49030;BME280;43337;52.070;4.508;2024-02-16T00:43:09;101040.13;;;11.35;100.00
49030;BME280;43337;52.070;4.508;2024-02-16T00:45:34;101029.81;;;11.29;100.00
49030;BME280;43337;52.070;4.508;2024-02-16T00:47:59;101034.00;;;11.34;100.00
49030;BME280;43337;52.070;4.508;2024-02-16T00:50:27;101018.50;;;11.27;100.00
49030;BME280;43337;52.070;4.508;2024-02-16T00:52:53;101017.69;;;11.24;100.00
49030;BME280;43337;52.070;4.508;2024-02-16T00:55:19;101018.63;;;11.23;100.00
49030;BME280;43337;52.070;4.508;2024-02-16T00:57:45;101017.69;;;11.24;100.00
49030;BME280;43337;52.070;4.508;2024-02-16T01:00:12;101023.78;;;11.27;100.00
49030;BME280;43337;52.070;4.508;2024-02-16T01:02:38;101017.69;;;11.24;100.00
49030;BME280;43337;52.070;4.508;2024-02-16T01:05:04;101012.53;;;11.21;100.00
49030;BME280;43337;52.070;4.508;2024-02-16T01:07:31;101015.88;;;11.27;100.00
49030;BME280;43337;52.070;4.508;2024-02-16T01:10:00;100999.84;;;11.11;100.00
49030;BME280;43337;52.070;4.508;2024-02-16T01:12:28;101016.97;;;11.21;100.00
49030;BME280;43337;52.070;4.508;2024-02-16T01:14:58;100993.84;;;11.07;100.00
49030;BME280;43337;52.070;4.508;2024-02-16T01:17:25;101027.19;;;11.29;100.00
49030;BME280;43337;52.070;4.508;2024-02-16T01:19:52;101000.31;;;11.20;100.00
49030;BME280;43337;52.070;4.508;2024-02-16T01:22:20;101009.88;;;11.23;100.00
49030;BME280;43337;52.070;4.508;2024-02-16T01:24:45;100991.41;;;11.23;100.00
49030;BME280;43337;52.070;4.508;2024-02-16T01:27:11;101002.84;;;11.22;100.00
49030;BME280;43337;52.070;4.508;2024-02-16T01:29:36;101001.34;;;11.16;100.00
49030;BME280;43337;52.070;4.508;2024-02-16T01:32:02;100996.00;;;11.18;100.00
49030;BME280;43337;52.070;4.508;2024-02-16T01:34:28;100977.88;;;11.10;100.00
49030;BME280;43337;52.070;4.508;2024-02-16T01:36:55;100974.34;;;11.11;100.00
49030;BME280;43337;52.070;4.508;2024-02-16T01:39:20;101000.53;;;11.14;100.00
49030;BME280;43337;52.070;4.508;2024-02-16T01:41:48;100998.31;;;11.05;100.00
49030;BME280;43337;52.070;4.508;2024-02-16T01:44:14;100955.47;;;10.80;100.00
49030;BME280;43337;52.070;4.508;2024-02-16T01:46:42;101006.94;;;11.09;100.00
49030;BME280;43337;52.070;4.508;2024-02-16T01:49:07;101006.88;;;11.10;100.00
49030;BME280;43337;52.070;4.508;2024-02-16T01:51:33;100960.56;;;10.84;100.00
49030;BME280;43337;52.070;4.508;2024-02-16T01:54:01;100989.63;;;11.03;100.00
49030;BME280;43337;52.070;4.508;2024-02-16T01:56:27;100949.16;;;10.84;100.00
49030;BME280;43337;52.070;4.508;2024-02-16T01:58:53;100983.31;;;11.07;100.00
49030;BME280;43337;52.070;4.508;2024-02-16T02:01:20;100981.84;;;11.00;100.00
49030;BME280;43337;52.070;4.508;2024-02-16T02:03:46;100942.38;;;10.78;100.00
49030;BME280;43337;52.070;4.508;2024-02-16T02:06:11;100984.94;;;10.89;100.00
49030;BME280;43337;52.070;4.508;2024-02-16T02:08:36;100978.81;;;10.89;100.00
49030;BME280;43337;52.070;4.508;2024-02-16T02:11:01;100989.22;;;10.92;100.00
49030;BME280;43337;52.070;4.508;2024-02-16T02:13:27;100978.06;;;10.85;100.00
49030;BME280;43337;52.070;4.508;2024-02-16T02:15:53;100978.06;;;10.85;100.00
49030;BME280;43337;52.070;4.508;2024-02-16T02:18:19;100980.50;;;10.90;100.00
49030;BME280;43337;52.070;4.508;2024-02-16T02:20:44;100991.69;;;10.95;100.00
49030;BME280;43337;52.070;4.508;2024-02-16T02:23:09;100989.88;;;10.97;100.00
49030;BME280;43337;52.070;4.508;2024-02-16T02:25:35;100974.31;;;10.91;100.00
49030;BME280;43337;52.070;4.508;2024-02-16T02:28:01;100973.41;;;10.92;100.00
49030;BME280;43337;52.070;4.508;2024-02-16T02:30:28;100959.75;;;10.82;100.00
49030;BME280;43337;52.070;4.508;2024-02-16T02:32:54;100982.09;;;10.94;100.00
49030;BME280;43337;52.070;4.508;2024-02-16T02:35:20;100977.69;;;10.94;100.00
49030;BME280;43337;52.070;4.508;2024-02-16T02:37:47;100959.09;;;10.77;100.00
49030;BME280;43337;52.070;4.508;2024-02-16T02:40:12;100965.88;;;10.83;100.00
49030;BME280;43337;52.070;4.508;2024-02-16T02:42:38;100973.53;;;10.89;100.00
49030;BME280;43337;52.070;4.508;2024-02-16T02:45:03;100981.44;;;10.89;100.00
49030;BME280;43337;52.070;4.508;2024-02-16T02:47:29;100963.97;;;10.86;100.00
49030;BME280;43337;52.070;4.508;2024-02-16T02:49:54;100962.16;;;10.88;100.00
49030;BME280;43337;52.070;4.508;2024-02-16T02:52:21;100959.84;;;10.81;100.00
49030;BME280;43337;52.070;4.508;2024-02-16T02:54:46;100964.09;;;10.83;100.00
49030;BME280;43337;52.070;4.508;2024-02-16T02:57:12;100965.88;;;10.83;100.00
49030;BME280;43337;52.070;4.508;2024-02-16T02:59:38;100969.25;;;10.86;100.00
49030;BME280;43337;52.070;4.508;2024-02-16T03:02:04;100964.81;;;10.87;100.00
49030;BME280;43337;52.070;4.508;2024-02-16T03:04:29;100951.06;;;10.80;100.00
49030;BME280;43337;52.070;4.508;2024-02-16T03:06:57;100947.50;;;10.81;100.00
49030;BME280;43337;52.070;4.508;2024-02-16T03:09:23;100944.06;;;10.79;100.00
49030;BME280;43337;52.070;4.508;2024-02-16T03:11:48;100949.03;;;10.87;100.00
49030;BME280;43337;52.070;4.508;2024-02-16T03:14:16;100954.91;;;10.93;100.00
49030;BME280;43337;52.070;4.508;2024-02-16T03:16:42;100940.88;;;10.93;100.00
49030;BME280;43337;52.070;4.508;2024-02-16T03:19:08;100937.97;;;10.99;100.00
49030;BME280;43337;52.070;4.508;2024-02-16T03:21:35;100952.53;;;11.08;100.00
49030;BME280;43337;52.070;4.508;2024-02-16T03:24:04;100919.72;;;10.94;100.00
49030;BME280;43337;52.070;4.508;2024-02-16T03:26:30;100937.59;;;11.08;100.00
49030;BME280;43337;52.070;4.508;2024-02-16T03:28:55;100945.38;;;11.11;100.00
49030;BME280;43337;52.070;4.508;2024-02-16T03:31:23;100939.38;;;11.08;100.00
49030;BME280;43337;52.070;4.508;2024-02-16T03:33:49;100956.69;;;11.13;100.00
49030;BME280;43337;52.070;4.508;2024-02-16T03:36:15;100948.16;;;11.07;100.00
49030;BME280;43337;52.070;4.508;2024-02-16T03:38:45;100955.75;;;11.14;100.00
49030;BME280;43337;52.070;4.508;2024-02-16T03:41:18;100955.75;;;11.14;100.00
49030;BME280;43337;52.070;4.508;2024-02-16T03:43:44;100926.97;;;11.10;100.00
49030;BME280;43337;52.070;4.508;2024-02-16T03:46:11;100934.66;;;11.14;100.00
49030;BME280;43337;52.070;4.508;2024-02-16T03:48:39;100944.34;;;11.14;100.00
49030;BME280;43337;52.070;4.508;2024-02-16T03:51:04;100928.03;;;11.06;100.00
49030;BME280;43337;52.070;4.508;2024-02-16T03:53:30;100935.88;;;11.07;100.00
49030;BME280;43337;52.070;4.508;2024-02-16T03:55:57;100898.19;;;10.85;100.00
49030;BME280;43337;52.070;4.508;2024-02-16T03:58:22;100922.44;;;10.93;100.00
49030;BME280;43337;52.070;4.508;2024-02-16T04:00:48;100893.13;;;10.80;100.00
49030;BME280;43337;52.070;4.508;2024-02-16T04:03:18;100941.41;;;11.01;100.00
49030;BME280;43337;52.070;4.508;2024-02-16T04:05:45;100942.91;;;11.07;100.00
49030;BME280;43337;52.070;4.508;2024-02-16T04:08:10;100902.00;;;10.78;100.00
49030;BME280;43337;52.070;4.508;2024-02-16T04:10:36;100952.59;;;11.06;100.00
49030;BME280;43337;52.070;4.508;2024-02-16T04:13:02;100919.53;;;10.79;100.00
49030;BME280;43337;52.070;4.508;2024-02-16T04:15:27;100943.38;;;10.96;100.00
49030;BME280;43337;52.070;4.508;2024-02-16T04:17:53;100910.56;;;10.83;100.00
49030;BME280;43337;52.070;4.508;2024-02-16T04:20:19;100946.78;;;10.98;100.00
49030;BME280;43337;52.070;4.508;2024-02-16T04:22:45;100925.41;;;10.85;100.00
49030;BME280;43337;52.070;4.508;2024-02-16T04:25:10;100949.22;;;11.03;100.00
49030;BME280;43337;52.070;4.508;2024-02-16T04:27:36;100933.81;;;10.93;100.00
49030;BME280;43337;52.070;4.508;2024-02-16T04:30:03;100947.66;;;10.98;100.00
49030;BME280;43337;52.070;4.508;2024-02-16T04:32:28;100950.28;;;10.98;100.00
49030;BME280;43337;52.070;4.508;2024-02-16T04:34:54;100936.47;;;10.93;100.00
49030;BME280;43337;52.070;4.508;2024-02-16T04:37:21;100959.13;;;10.97;100.00
49030;BME280;43337;52.070;4.508;2024-02-16T04:39:51;100962.69;;;10.96;100.00
49030;BME280;43337;52.070;4.508;2024-02-16T04:42:17;100942.97;;;10.85;100.00
49030;BME280;43337;52.070;4.508;2024-02-16T04:44:42;100944.75;;;10.84;100.00
49030;BME280;43337;52.070;4.508;2024-02-16T04:47:08;100948.13;;;10.88;100.00
49030;BME280;43337;52.070;4.508;2024-02-16T04:49:34;100961.09;;;10.92;100.00
49030;BME280;43337;52.070;4.508;2024-02-16T04:52:00;100963.72;;;10.92;100.00
49030;BME280;43337;52.070;4.508;2024-02-16T04:54:25;100962.94;;;10.90;100.00
49030;BME280;43337;52.070;4.508;2024-02-16T04:56:51;100936.97;;;10.81;100.00
49030;BME280;43337;52.070;4.508;2024-02-16T04:59:17;100938.06;;;10.75;100.00
49030;BME280;43337;52.070;4.508;2024-02-16T05:01:47;100953.44;;;10.86;100.00
49030;BME280;43337;52.070;4.508;2024-02-16T05:04:13;100953.84;;;10.77;100.00
49030;BME280;43337;52.070;4.508;2024-02-16T05:06:41;100952.97;;;10.77;100.00
49030;BME280;43337;52.070;4.508;2024-02-16T05:09:07;100913.50;;;10.55;100.00
49030;BME280;43337;52.070;4.508;2024-02-16T05:11:32;100943.41;;;10.74;100.00
49030;BME280;43337;52.070;4.508;2024-02-16T05:13:58;100911.06;;;10.50;100.00
49030;BME280;43337;52.070;4.508;2024-02-16T05:16:24;100965.34;;;10.74;100.00
49030;BME280;43337;52.070;4.508;2024-02-16T05:18:49;100954.81;;;10.74;100.00
49030;BME280;43337;52.070;4.508;2024-02-16T05:21:14;100958.47;;;10.70;100.00
49030;BME280;43337;52.070;4.508;2024-02-16T05:23:40;100944.66;;;10.65;100.00
49030;BME280;43337;52.070;4.508;2024-02-16T05:26:05;100958.59;;;10.67;100.00
49030;BME280;43337;52.070;4.508;2024-02-16T05:28:31;100954.50;;;10.60;100.00
49030;BME280;43337;52.070;4.508;2024-02-16T05:30:57;100952.81;;;10.59;100.00
49030;BME280;43337;52.070;4.508;2024-02-16T05:33:26;100962.16;;;10.66;100.00
49030;BME280;43337;52.070;4.508;2024-02-16T05:35:52;100949.13;;;10.63;100.00
49030;BME280;43337;52.070;4.508;2024-02-16T05:38:20;100966.38;;;10.70;100.00
49030;BME280;43337;52.070;4.508;2024-02-16T05:40:58;100968.22;;;10.68;100.00
49030;BME280;43337;52.070;4.508;2024-02-16T05:43:24;100972.69;;;10.66;100.00
49030;BME280;43337;52.070;4.508;2024-02-16T05:45:52;100977.78;;;10.71;100.00
49030;BME280;43337;52.070;4.508;2024-02-16T05:48:17;100985.66;;;10.71;100.00
49030;BME280;43337;52.070;4.508;2024-02-16T05:50:43;100986.53;;;10.71;100.00
49030;BME280;43337;52.070;4.508;2024-02-16T05:53:09;100988.38;;;10.69;100.00
49030;BME280;43337;52.070;4.508;2024-02-16T05:55:36;100935.84;;;10.44;100.00
49030;BME280;43337;52.070;4.508;2024-02-16T05:58:01;100963.22;;;10.62;100.00
49030;BME280;43337;52.070;4.508;2024-02-16T06:00:27;100986.34;;;10.76;100.00
49030;BME280;43337;52.070;4.508;2024-02-16T06:02:53;100980.22;;;10.75;100.00
49030;BME280;43337;52.070;4.508;2024-02-16T06:05:18;100974.16;;;10.73;100.00
49030;BME280;43337;52.070;4.508;2024-02-16T06:07:45;100946.78;;;10.56;100.00
49030;BME280;43337;52.070;4.508;2024-02-16T06:10:11;100976.00;;;10.71;100.00
49030;BME280;43337;52.070;4.508;2024-02-16T06:12:37;100991.66;;;10.74;100.00
49030;BME280;43337;52.070;4.508;2024-02-16T06:15:04;100996.00;;;10.75;100.00
49030;BME280;43337;52.070;4.508;2024-02-16T06:17:30;100984.00;;;10.68;100.00
49030;BME280;43337;52.070;4.508;2024-02-16T06:19:55;100993.25;;;10.79;100.00
49030;BME280;43337;52.070;4.508;2024-02-16T06:22:20;100983.56;;;10.79;100.00
49030;BME280;43337;52.070;4.508;2024-02-16T06:24:47;100986.53;;;10.71;100.00
49030;BME280;43337;52.070;4.508;2024-02-16T06:27:12;100952.06;;;10.56;100.00
49030;BME280;43337;52.070;4.508;2024-02-16T06:29:38;100995.66;;;10.85;100.00
49030;BME280;43337;52.070;4.508;2024-02-16T06:32:03;100971.34;;;10.78;100.00
49030;BME280;43337;52.070;4.508;2024-02-16T06:34:30;100989.53;;;10.84;100.00
49030;BME280;43337;52.070;4.508;2024-02-16T06:36:57;100989.66;;;10.81;100.00
49030;BME280;43337;52.070;4.508;2024-02-16T06:39:23;101022.16;;;11.02;100.00
49030;BME280;43337;52.070;4.508;2024-02-16T06:41:48;101014.97;;;11.06;100.00
49030;BME280;43337;52.070;4.508;2024-02-16T06:44:17;101008.72;;;11.08;100.00
49030;BME280;43337;52.070;4.508;2024-02-16T06:46:42;100957.50;;;10.73;100.00
49030;BME280;43337;52.070;4.508;2024-02-16T06:49:09;101024.22;;;11.16;100.00
49030;BME280;43337;52.070;4.508;2024-02-16T06:51:34;100993.16;;;11.02;100.00
49030;BME280;43337;52.070;4.508;2024-02-16T06:54:03;100986.38;;;10.96;100.00
49030;BME280;43337;52.070;4.508;2024-02-16T06:56:29;101025.81;;;11.20;100.00
49030;BME280;43337;52.070;4.508;2024-02-16T06:58:55;101029.91;;;11.27;100.00
49030;BME280;43337;52.070;4.508;2024-02-16T07:01:20;100996.53;;;11.06;100.00
49030;BME280;43337;52.070;4.508;2024-02-16T07:03:46;101023.78;;;11.27;100.00
49030;BME280;43337;52.070;4.508;2024-02-16T07:06:12;101023.81;;;11.25;100.00
49030;BME280;43337;52.070;4.508;2024-02-16T07:08:42;101017.16;;;11.16;100.00
49030;BME280;43337;52.070;4.508;2024-02-16T07:11:17;101024.66;;;11.25;100.00
49030;BME280;43337;52.070;4.508;2024-02-16T07:13:45;101037.72;;;11.29;100.00
49030;BME280;43337;52.070;4.508;2024-02-16T07:16:11;101023.16;;;11.20;100.00
49030;BME280;43337;52.070;4.508;2024-02-16T07:18:36;101060.19;;;11.37;100.00
49030;BME280;43337;52.070;4.508;2024-02-16T07:21:02;101021.47;;;11.19;100.00
49030;BME280;43337;52.070;4.508;2024-02-16T07:23:28;101065.44;;;11.39;100.00
49030;BME280;43337;52.070;4.508;2024-02-16T07:25:55;101043.06;;;11.27;100.00
49030;BME280;43337;52.070;4.508;2024-02-16T07:28:22;101059.47;;;11.34;100.00
49030;BME280;43337;52.070;4.508;2024-02-16T07:30:48;101080.19;;;11.43;100.00
49030;BME280;43337;52.070;4.508;2024-02-16T07:33:13;101072.59;;;11.35;100.00
49030;BME280;43337;52.070;4.508;2024-02-16T07:35:39;101053.75;;;11.24;100.00
49030;BME280;43337;52.070;4.508;2024-02-16T07:38:09;101046.28;;;11.13;100.00
49030;BME280;43337;52.070;4.508;2024-02-16T07:40:34;101110.78;;;11.47;100.00
49030;BME280;43337;52.070;4.508;2024-02-16T07:43:00;101046.34;;;11.12;100.00
49030;BME280;43337;52.070;4.508;2024-02-16T07:45:26;101120.16;;;11.54;100.00
49030;BME280;43337;52.070;4.508;2024-02-16T07:47:51;101113.88;;;11.57;100.00
49030;BME280;43337;52.070;4.508;2024-02-16T07:50:21;101119.09;;;11.58;100.00
49030;BME280;43337;52.070;4.508;2024-02-16T07:52:48;101118.97;;;11.61;100.00
49030;BME280;43337;52.070;4.508;2024-02-16T07:55:14;101127.75;;;11.62;100.00
49030;BME280;43337;52.070;4.508;2024-02-16T07:57:40;101125.03;;;11.63;100.00
49030;BME280;43337;52.070;4.508;2024-02-16T08:00:05;101120.69;;;11.62;100.00
49030;BME280;43337;52.070;4.508;2024-02-16T08:02:31;101118.56;;;11.70;100.00
49030;BME280;43337;52.070;4.508;2024-02-16T08:04:58;101116.91;;;11.68;100.00
49030;BME280;43337;52.070;4.508;2024-02-16T08:07:24;101131.69;;;11.72;100.00
49030;BME280;43337;52.070;4.508;2024-02-16T08:09:50;101137.69;;;11.76;100.00
49030;BME280;43337;52.070;4.508;2024-02-16T08:12:15;101140.16;;;11.80;100.00
49030;BME280;43337;52.070;4.508;2024-02-16T08:14:41;101133.94;;;11.81;100.00
49030;BME280;43337;52.070;4.508;2024-02-16T08:17:07;101115.84;;;11.72;100.00
49030;BME280;43337;52.070;4.508;2024-02-16T08:19:35;101115.81;;;11.73;100.00
49030;BME280;43337;52.070;4.508;2024-02-16T08:22:06;101113.53;;;11.64;100.00
49030;BME280;43337;52.070;4.508;2024-02-16T08:24:32;101110.66;;;11.70;100.00
49030;BME280;43337;52.070;4.508;2024-02-16T08:26:58;101113.63;;;11.63;100.00
49030;BME280;43337;52.070;4.508;2024-02-16T08:29:23;101132.69;;;11.69;100.00
49030;BME280;43337;52.070;4.508;2024-02-16T08:31:50;101182.19;;;11.85;100.00
49030;BME280;43337;52.070;4.508;2024-02-16T08:34:18;101160.25;;;11.83;100.00
49030;BME280;43337;52.070;4.508;2024-02-16T08:36:48;101168.16;;;11.84;100.00
49030;BME280;43337;52.070;4.508;2024-02-16T08:39:15;101152.97;;;11.67;100.00
49030;BME280;43337;52.070;4.508;2024-02-16T08:41:40;101183.53;;;11.73;100.00
49030;BME280;43337;52.070;4.508;2024-02-16T08:44:07;101198.44;;;11.74;100.00
49030;BME280;43337;52.070;4.508;2024-02-16T08:46:38;101157.06;;;11.54;100.00
49030;BME280;43337;52.070;4.508;2024-02-16T08:49:04;101153.56;;;11.54;100.00
49030;BME280;43337;52.070;4.508;2024-02-16T08:51:32;101189.72;;;11.72;100.00
49030;BME280;43337;52.070;4.508;2024-02-16T08:53:57;101192.19;;;11.77;100.00
49030;BME280;43337;52.070;4.508;2024-02-16T08:56:25;101188.84;;;11.71;100.00
49030;BME280;43337;52.070;4.508;2024-02-16T08:58:51;101198.22;;;11.79;100.00
49030;BME280;43337;52.070;4.508;2024-02-16T09:01:17;101213.78;;;11.86;100.00
49030;BME280;43337;52.070;4.508;2024-02-16T09:03:43;101211.31;;;11.82;100.00
49030;BME280;43337;52.070;4.508;2024-02-16T09:06:11;101242.75;;;11.88;100.00
49030;BME280;43337;52.070;4.508;2024-02-16T09:08:38;101228.84;;;11.83;100.00
49030;BME280;43337;52.070;4.508;2024-02-16T09:11:06;101235.91;;;11.82;100.00
49030;BME280;43337;52.070;4.508;2024-02-16T09:13:35;101240.16;;;11.86;100.00
49030;BME280;43337;52.070;4.508;2024-02-16T09:16:02;101236.84;;;11.81;100.00
49030;BME280;43337;52.070;4.508;2024-02-16T09:18:27;101248.19;;;11.83;100.00
49030;BME280;43337;52.070;4.508;2024-02-16T09:20:52;101253.47;;;11.83;100.00
49030;BME280;43337;52.070;4.508;2024-02-16T09:23:18;101242.47;;;11.72;100.00
49030;BME280;43337;52.070;4.508;2024-02-16T09:25:43;101265.13;;;11.78;100.00
49030;BME280;43337;52.070;4.508;2024-02-16T09:28:11;101260.94;;;11.72;100.00
49030;BME280;43337;52.070;4.508;2024-02-16T09:30:37;101269.09;;;11.66;100.00
49030;BME280;43337;52.070;4.508;2024-02-16T09:33:03;101253.91;;;11.51;100.00
49030;BME280;43337;52.070;4.508;2024-02-16T09:35:28;101292.84;;;11.66;100.00
49030;BME280;43337;52.070;4.508;2024-02-16T09:37:54;101294.75;;;11.62;100.00
49030;BME280;43337;52.070;4.508;2024-02-16T09:40:22;101272.09;;;11.35;100.00
49030;BME280;43337;52.070;4.508;2024-02-16T09:42:49;101310.94;;;11.53;100.00
49030;BME280;43337;52.070;4.508;2024-02-16T09:45:17;101271.75;;;11.20;100.00
49030;BME280;43337;52.070;4.508;2024-02-16T09:47:44;101322.69;;;11.44;100.00
49030;BME280;43337;52.070;4.508;2024-02-16T09:50:15;101305.16;;;11.20;100.00
49030;BME280;43337;52.070;4.508;2024-02-16T09:52:41;101333.63;;;11.34;100.00
49030;BME280;43337;52.070;4.508;2024-02-16T09:55:10;101335.69;;;11.25;100.00
49030;BME280;43337;52.070;4.508;2024-02-16T09:57:36;101316.34;;;11.03;100.00
49030;BME280;43337;52.070;4.508;2024-02-16T10:00:03;101352.22;;;11.07;100.00
49030;BME280;43337;52.070;4.508;2024-02-16T10:02:46;101324.91;;;10.85;100.00
49030;BME280;43337;52.070;4.508;2024-02-16T10:05:19;101355.38;;;10.92;100.00
49030;BME280;43337;52.070;4.508;2024-02-16T10:07:47;101373.28;;;10.82;100.00
49030;BME280;43337;52.070;4.508;2024-02-16T10:10:28;101328.66;;;10.52;100.00
49030;BME280;43337;52.070;4.508;2024-02-16T10:13:05;101341.63;;;10.59;100.00
49030;BME280;43337;52.070;4.508;2024-02-16T10:15:31;101313.38;;;10.37;100.00
49030;BME280;43337;52.070;4.508;2024-02-16T10:20:23;101356.56;;;10.58;100.00
49030;BME280;43337;52.070;4.508;2024-02-16T10:22:49;101336.97;;;10.40;100.00
49030;BME280;43337;52.070;4.508;2024-02-16T10:25:14;101334.66;;;10.31;100.00
49030;BME280;43337;52.070;4.508;2024-02-16T10:27:40;101382.28;;;10.50;100.00
49030;BME280;43337;52.070;4.508;2024-02-16T10:30:08;101392.59;;;10.56;100.00
49030;BME280;43337;52.070;4.508;2024-02-16T10:32:38;101368.81;;;10.33;100.00
49030;BME280;43337;52.070;4.508;2024-02-16T10:35:06;101414.72;;;10.50;100.00
49030;BME280;43337;52.070;4.508;2024-02-16T10:37:34;101445.09;;;10.61;100.00
49030;BME280;43337;52.070;4.508;2024-02-16T10:40:00;101428.00;;;10.47;100.00
49030;BME280;43337;52.070;4.508;2024-02-16T10:42:27;101414.28;;;10.38;100.00
49030;BME280;43337;52.070;4.508;2024-02-16T10:44:54;101430.81;;;10.41;100.00
49030;BME280;43337;52.070;4.508;2024-02-16T10:47:20;101431.88;;;10.36;100.00
49030;BME280;43337;52.070;4.508;2024-02-16T10:49:45;101419.59;;;10.36;100.00
49030;BME280;43337;52.070;4.508;2024-02-16T10:52:14;101434.56;;;10.34;100.00
49030;BME280;43337;52.070;4.508;2024-02-16T10:54:41;101414.97;;;10.15;100.00
49030;BME280;43337;52.070;4.508;2024-02-16T10:57:09;101425.16;;;10.27;100.00
49030;BME280;43337;52.070;4.508;2024-02-16T10:59:42;101447.59;;;10.39;100.00
49030;BME280;43337;52.070;4.508;2024-02-16T11:02:12;101478.63;;;10.56;100.00
49030;BME280;43337;52.070;4.508;2024-02-16T11:04:38;101477.69;;;10.58;100.00
49030;BME280;43337;52.070;4.508;2024-02-16T11:07:17;101455.47;;;10.39;100.00
49030;BME280;43337;52.070;4.508;2024-02-16T11:09:44;101491.88;;;10.52;100.00
49030;BME280;43337;52.070;4.508;2024-02-16T11:12:13;101503.09;;;10.59;100.00
49030;BME280;43337;52.070;4.508;2024-02-16T11:14:42;101517.09;;;10.61;100.00
49030;BME280;43337;52.070;4.508;2024-02-16T11:17:28;101490.78;;;10.32;100.00
49030;BME280;43337;52.070;4.508;2024-02-16T11:19:54;101523.59;;;10.49;100.00
49030;BME280;43337;52.070;4.508;2024-02-16T11:22:20;101501.31;;;10.32;100.00
49030;BME280;43337;52.070;4.508;2024-02-16T11:24:49;101535.00;;;10.50;100.00
49030;BME280;43337;52.070;4.508;2024-02-16T11:27:18;101529.81;;;10.47;100.00
49030;BME280;43337;52.070;4.508;2024-02-16T11:29:46;101503.19;;;10.28;100.00
49030;BME280;43337;52.070;4.508;2024-02-16T11:32:18;101505.94;;;10.23;100.00
49030;BME280;43337;52.070;4.508;2024-02-16T11:34:44;101478.41;;;10.06;100.00
49030;BME280;43337;52.070;4.508;2024-02-16T11:37:12;101523.94;;;10.37;100.00
49030;BME280;43337;52.070;4.508;2024-02-16T11:39:38;101554.19;;;10.54;100.00
49030;BME280;43337;52.070;4.508;2024-02-16T11:42:11;101522.16;;;10.39;100.00
49030;BME280;43337;52.070;4.508;2024-02-16T11:44:40;101560.00;;;10.63;100.00
49030;BME280;43337;52.070;4.508;2024-02-16T11:47:08;101557.34;;;10.65;100.00
49030;BME280;43337;52.070;4.508;2024-02-16T11:49:42;101547.06;;;10.57;100.00
49030;BME280;43337;52.070;4.508;2024-02-16T11:52:07;101573.53;;;10.81;100.00
49030;BME280;43337;52.070;4.508;2024-02-16T11:54:33;101572.31;;;10.91;100.00
49030;BME280;43337;52.070;4.508;2024-02-16T11:56:59;101540.66;;;10.64;100.00
49030;BME280;43337;52.070;4.508;2024-02-16T11:59:24;101580.94;;;10.96;100.00
49030;BME280;43337;52.070;4.508;2024-02-16T12:01:57;101587.06;;;10.96;100.00
49030;BME280;43337;52.070;4.508;2024-02-16T12:04:27;101592.97;;;11.05;100.00
49030;BME280;43337;52.070;4.508;2024-02-16T12:06:56;101589.50;;;11.03;100.00
49030;BME280;43337;52.070;4.508;2024-02-16T12:09:22;101586.59;;;11.10;100.00
49030;BME280;43337;52.070;4.508;2024-02-16T12:11:48;101576.97;;;11.11;100.00
49030;BME280;43337;52.070;4.508;2024-02-16T12:14:17;101589.06;;;11.16;100.00
49030;BME280;43337;52.070;4.508;2024-02-16T12:17:01;101605.63;;;11.20;100.00
49030;BME280;43337;52.070;4.508;2024-02-16T12:19:26;101562.50;;;10.96;100.00
49030;BME280;43337;52.070;4.508;2024-02-16T12:21:53;101586.59;;;11.10;100.00
49030;BME280;43337;52.070;4.508;2024-02-16T12:24:19;101627.25;;;11.31;100.00
49030;BME280;43337;52.070;4.508;2024-02-16T12:26:52;101565.13;;;10.96;100.00
49030;BME280;43337;52.070;4.508;2024-02-16T12:29:17;101624.63;;;11.30;100.00
49030;BME280;43337;52.070;4.508;2024-02-16T12:31:45;101600.56;;;11.14;100.00
49030;BME280;43337;52.070;4.508;2024-02-16T12:34:13;101616.09;;;11.23;100.00
49030;BME280;43337;52.070;4.508;2024-02-16T12:36:39;101637.03;;;11.26;100.00
49030;BME280;43337;52.070;4.508;2024-02-16T12:39:05;101604.34;;;11.05;100.00
49030;BME280;43337;52.070;4.508;2024-02-16T12:41:32;101613.78;;;11.12;100.00